sensor_id;sensor_type;location;lat;lon;timestamp;pressure;altitude;pressure_sealevel;temperature;humidity
26697;BME280;14312;52.614;13.496;2023-04-27T00:02:37;101160.41;;;9.67;48.97
26697;BME280;14312;52.614;13.496;2023-04-27T00:05:23;101154.03;;;9.68;48.84
26697;BME280;14312;52.614;13.496;2023-04-27T00:08:09;101154.03;;;9.68;48.87
26697;BME280;14312;52.614;13.496;2023-04-27T00:10:55;101148.72;;;9.68;48.92
26697;BME280;14312;52.614;13.496;2023-04-27T00:13:42;101147.09;;;9.67;48.86
26697;BME280;14312;52.614;13.496;2023-04-27T00:16:28;101147.91;;;9.68;49.09
26697;BME280;14312;52.614;13.496;2023-04-27T00:19:14;101147.91;;;9.68;48.91
26697;BME280;14312;52.614;13.496;2023-04-27T00:22:01;101142.59;;;9.68;49.27
26697;BME280;14312;52.614;13.496;2023-04-27T00:24:47;101143.41;;;9.68;49.05
26697;BME280;14312;52.614;13.496;2023-04-27T00:27:33;101152.19;;;9.69;49.14
26697;BME280;14312;52.614;13.496;2023-04-27T00:30:19;101147.69;;;9.69;49.22
26697;BME280;14312;52.614;13.496;2023-04-27T00:33:05;101148.72;;;9.68;48.98
26697;BME280;14312;52.614;13.496;2023-04-27T00:35:51;101149.75;;;9.67;49.26
26697;BME280;14312;52.614;13.496;2023-04-27T00:38:37;101150.78;;;9.66;49.06
26697;BME280;14312;52.614;13.496;2023-04-27T00:41:23;101157.75;;;9.67;49.34
26697;BME280;14312;52.614;13.496;2023-04-27T00:44:09;101155.31;;;9.66;48.97
26697;BME280;14312;52.614;13.496;2023-04-27T00:46:54;101157.16;;;9.65;49.28
26697;BME280;14312;52.614;13.496;2023-04-27T00:49:40;101158.19;;;9.64;49.14
26697;BME280;14312;52.614;13.496;2023-04-27T00:52:27;101159.22;;;9.63;49.20
26697;BME280;14312;52.614;13.496;2023-04-27T00:55:13;101167.22;;;9.63;49.17
26697;BME280;14312;52.614;13.496;2023-04-27T00:57:58;101169.25;;;9.61;49.52
26697;BME280;14312;52.614;13.496;2023-04-27T01:00:44;101169.25;;;9.61;49.53
26697;BME280;14312;52.614;13.496;2023-04-27T01:03:31;101168.44;;;9.61;49.31
26697;BME280;14312;52.614;13.496;2023-04-27T01:06:17;101168.91;;;9.58;49.52
26697;BME280;14312;52.614;13.496;2023-04-27T01:09:03;101169.72;;;9.58;49.38
26697;BME280;14312;52.614;13.496;2023-04-27T01:11:50;101171.31;;;9.59;49.60
26697;BME280;14312;52.614;13.496;2023-04-27T01:14:36;101165.44;;;9.57;49.58
26697;BME280;14312;52.614;13.496;2023-04-27T01:17:21;101169.72;;;9.58;49.31
26697;BME280;14312;52.614;13.496;2023-04-27T01:20:07;101169.72;;;9.58;49.67
26697;BME280;14312;52.614;13.496;2023-04-27T01:22:55;101175.03;;;9.58;49.40
26697;BME280;14312;52.614;13.496;2023-04-27T01:25:41;101172.59;;;9.57;49.47
26697;BME280;14312;52.614;13.496;2023-04-27T01:28:27;101171.78;;;9.56;49.45
26697;BME280;14312;52.614;13.496;2023-04-27T01:31:13;101176.06;;;9.57;49.75
26697;BME280;14312;52.614;13.496;2023-04-27T01:33:59;101179.16;;;9.54;49.54
26697;BME280;14312;52.614;13.496;2023-04-27T01:36:46;101181.59;;;9.56;49.66
26697;BME280;14312;52.614;13.496;2023-04-27T01:39:32;101186.13;;;9.55;49.62
26697;BME280;14312;52.614;13.496;2023-04-27T01:42:17;101191.44;;;9.55;49.53
26697;BME280;14312;52.614;13.496;2023-04-27T01:45:04;101193.28;;;9.55;49.82
26697;BME280;14312;52.614;13.496;2023-04-27T01:47:50;101193.50;;;9.53;49.41
26697;BME280;14312;52.614;13.496;2023-04-27T01:50:37;101191.84;;;9.52;49.74
26697;BME280;14312;52.614;13.496;2023-04-27T01:53:23;101190.25;;;9.51;49.77
26697;BME280;14312;52.614;13.496;2023-04-27T01:56:08;101194.75;;;9.51;49.42
26697;BME280;14312;52.614;13.496;2023-04-27T01:58:55;101190.25;;;9.51;49.57
26697;BME280;14312;52.614;13.496;2023-04-27T02:01:40;101193.13;;;9.50;49.76
26697;BME280;14312;52.614;13.496;2023-04-27T02:04:26;101200.09;;;9.51;49.58
26697;BME280;14312;52.614;13.496;2023-04-27T02:07:12;101201.09;;;9.50;49.66
26697;BME280;14312;52.614;13.496;2023-04-27T02:09:58;101202.94;;;9.49;49.65
26697;BME280;14312;52.614;13.496;2023-04-27T02:12:44;101193.34;;;9.48;49.53
26697;BME280;14312;52.614;13.496;2023-04-27T02:15:30;101205.00;;;9.47;49.67
26697;BME280;14312;52.614;13.496;2023-04-27T02:18:16;101205.00;;;9.47;49.55
26697;BME280;14312;52.614;13.496;2023-04-27T02:21:09;101205.81;;;9.48;50.10
26697;BME280;14312;52.614;13.496;2023-04-27T02:23:55;101214.00;;;9.46;49.77
26697;BME280;14312;52.614;13.496;2023-04-27T02:26:41;101211.34;;;9.46;49.70
26697;BME280;14312;52.614;13.496;2023-04-27T02:29:30;101219.34;;;9.46;50.03
26697;BME280;14312;52.614;13.496;2023-04-27T02:32:16;101212.84;;;9.42;49.83
26697;BME280;14312;52.614;13.496;2023-04-27T02:35:02;101218.16;;;9.42;49.56
26697;BME280;14312;52.614;13.496;2023-04-27T02:37:49;101216.53;;;9.41;49.62
26697;BME280;14312;52.614;13.496;2023-04-27T02:40:35;101220.22;;;9.40;49.90
26697;BME280;14312;52.614;13.496;2023-04-27T02:43:21;101216.38;;;9.36;49.71
26697;BME280;14312;52.614;13.496;2023-04-27T02:46:07;101222.72;;;9.35;49.92
26697;BME280;14312;52.614;13.496;2023-04-27T02:48:54;101221.09;;;9.34;50.12
26697;BME280;14312;52.614;13.496;2023-04-27T02:51:40;101225.78;;;9.32;49.98
26697;BME280;14312;52.614;13.496;2023-04-27T02:54:26;101221.97;;;9.28;49.88
26697;BME280;14312;52.614;13.496;2023-04-27T02:57:12;101225.63;;;9.27;50.20
26697;BME280;14312;52.614;13.496;2023-04-27T02:59:58;101227.69;;;9.25;50.44
26697;BME280;14312;52.614;13.496;2023-04-27T03:02:44;101237.75;;;9.23;50.23
26697;BME280;14312;52.614;13.496;2023-04-27T03:05:30;101223.25;;;9.19;50.12
26697;BME280;14312;52.614;13.496;2023-04-27T03:08:17;101235.94;;;9.17;50.35
26697;BME280;14312;52.614;13.496;2023-04-27T03:11:03;101234.31;;;9.16;49.88
26697;BME280;14312;52.614;13.496;2023-04-27T03:13:49;101230.25;;;9.13;50.47
26697;BME280;14312;52.614;13.496;2023-04-27T03:16:35;101232.28;;;9.11;50.45
26697;BME280;14312;52.614;13.496;2023-04-27T03:19:21;101235.97;;;9.10;50.16
26697;BME280;14312;52.614;13.496;2023-04-27T03:22:07;101237.25;;;9.08;50.44
26697;BME280;14312;52.614;13.496;2023-04-27T03:24:53;101243.59;;;9.07;50.22
26697;BME280;14312;52.614;13.496;2023-04-27T03:27:39;101236.63;;;9.06;50.65
26697;BME280;14312;52.614;13.496;2023-04-27T03:30:25;101239.72;;;9.02;50.31
26697;BME280;14312;52.614;13.496;2023-04-27T03:33:11;101246.66;;;9.03;50.58
26697;BME280;14312;52.614;13.496;2023-04-27T03:35:58;101250.34;;;9.02;50.72
26697;BME280;14312;52.614;13.496;2023-04-27T03:38:46;101250.34;;;9.02;50.48
26697;BME280;14312;52.614;13.496;2023-04-27T03:41:32;101258.31;;;9.02;50.45
26697;BME280;14312;52.614;13.496;2023-04-27T03:44:18;101259.38;;;9.01;50.41
26697;BME280;14312;52.614;13.496;2023-04-27T03:47:03;101259.78;;;8.98;50.72
26697;BME280;14312;52.614;13.496;2023-04-27T03:49:53;101251.19;;;8.96;50.62
26697;BME280;14312;52.614;13.496;2023-04-27T03:52:39;101263.47;;;8.97;50.56
26697;BME280;14312;52.614;13.496;2023-04-27T03:55:26;101259.41;;;8.95;50.56
26697;BME280;14312;52.614;13.496;2023-04-27T03:58:12;101260.19;;;8.95;50.94
26697;BME280;14312;52.614;13.496;2023-04-27T04:00:58;101266.34;;;8.96;50.82
26697;BME280;14312;52.614;13.496;2023-04-27T04:03:44;101270.84;;;8.95;50.80
26697;BME280;14312;52.614;13.496;2023-04-27T04:06:30;101277.19;;;8.94;50.93
26697;BME280;14312;52.614;13.496;2023-04-27T04:09:16;101270.03;;;8.95;50.89
26697;BME280;14312;52.614;13.496;2023-04-27T04:12:02;101273.72;;;8.94;50.79
26697;BME280;14312;52.614;13.496;2023-04-27T04:14:48;101279.84;;;8.94;50.67
26697;BME280;14312;52.614;13.496;2023-04-27T04:17:34;101284.34;;;8.94;50.67
26697;BME280;14312;52.614;13.496;2023-04-27T04:20:20;101289.69;;;8.94;50.59
26697;BME280;14312;52.614;13.496;2023-04-27T04:23:07;101289.69;;;8.94;50.79
26697;BME280;14312;52.614;13.496;2023-04-27T04:25:56;101292.09;;;8.95;51.07
26697;BME280;14312;52.614;13.496;2023-04-27T04:28:42;101296.38;;;8.96;50.73
26697;BME280;14312;52.614;13.496;2023-04-27T04:31:28;101298.03;;;8.97;51.01
26697;BME280;14312;52.614;13.496;2023-04-27T04:34:14;101294.13;;;9.00;50.75
26697;BME280;14312;52.614;13.496;2023-04-27T04:37:00;101292.88;;;9.02;50.96
26697;BME280;14312;52.614;13.496;2023-04-27T04:39:46;101297.97;;;9.04;51.00
26697;BME280;14312;52.614;13.496;2023-04-27T04:42:32;101300.22;;;9.07;51.05
26697;BME280;14312;52.614;13.496;2023-04-27T04:45:19;101300.59;;;9.11;51.15
26697;BME280;14312;52.614;13.496;2023-04-27T04:48:05;101300.19;;;9.14;50.89
26697;BME280;14312;52.614;13.496;2023-04-27T04:50:51;101301.38;;;9.18;50.85
26697;BME280;14312;52.614;13.496;2023-04-27T04:53:36;101306.28;;;9.21;50.97
26697;BME280;14312;52.614;13.496;2023-04-27T04:56:22;101300.50;;;9.24;51.18
26697;BME280;14312;52.614;13.496;2023-04-27T04:59:08;101307.88;;;9.28;50.81
26697;BME280;14312;52.614;13.496;2023-04-27T05:01:54;101303.75;;;9.32;50.96
26697;BME280;14312;52.614;13.496;2023-04-27T05:04:40;101312.31;;;9.34;51.05
26697;BME280;14312;52.614;13.496;2023-04-27T05:07:26;101301.69;;;9.34;50.98
26697;BME280;14312;52.614;13.496;2023-04-27T05:10:12;101314.31;;;9.39;51.02
26697;BME280;14312;52.614;13.496;2023-04-27T05:12:58;101312.28;;;9.41;51.07
26697;BME280;14312;52.614;13.496;2023-04-27T05:15:44;101315.53;;;9.43;50.78
26697;BME280;14312;52.614;13.496;2023-04-27T05:18:31;101311.84;;;9.44;50.93
26697;BME280;14312;52.614;13.496;2023-04-27T05:21:17;101313.03;;;9.48;50.84
26697;BME280;14312;52.614;13.496;2023-04-27T05:24:05;101312.63;;;9.51;50.81
26697;BME280;14312;52.614;13.496;2023-04-27T05:26:52;101320.16;;;9.54;51.07
26697;BME280;14312;52.614;13.496;2023-04-27T05:29:38;101312.78;;;9.56;50.94
26697;BME280;14312;52.614;13.496;2023-04-27T05:32:24;101314.22;;;9.59;51.08
26697;BME280;14312;52.614;13.496;2023-04-27T05:35:10;101305.34;;;9.65;51.04
26697;BME280;14312;52.614;13.496;2023-04-27T05:37:56;101311.03;;;9.68;51.09
26697;BME280;14312;52.614;13.496;2023-04-27T05:40:42;101319.41;;;9.72;51.00
26697;BME280;14312;52.614;13.496;2023-04-27T05:43:28;101316.09;;;9.76;50.71
26697;BME280;14312;52.614;13.496;2023-04-27T05:46:14;101321.81;;;9.80;50.77
26697;BME280;14312;52.614;13.496;2023-04-27T05:49:00;101317.88;;;9.82;50.77
26697;BME280;14312;52.614;13.496;2023-04-27T05:51:46;101309.91;;;9.82;51.02
26697;BME280;14312;52.614;13.496;2023-04-27T05:54:32;101319.66;;;9.89;51.24
26697;BME280;14312;52.614;13.496;2023-04-27T05:57:18;101329.06;;;9.91;51.12
26697;BME280;14312;52.614;13.496;2023-04-27T06:00:05;101324.94;;;9.95;50.87
26697;BME280;14312;52.614;13.496;2023-04-27T06:02:55;101314.69;;;9.99;50.76
26697;BME280;14312;52.614;13.496;2023-04-27T06:05:41;101331.84;;;10.03;51.12
26697;BME280;14312;52.614;13.496;2023-04-27T06:08:27;101320.75;;;10.06;50.97
26697;BME280;14312;52.614;13.496;2023-04-27T06:11:14;101329.91;;;10.10;50.90
26697;BME280;14312;52.614;13.496;2023-04-27T06:14:01;101332.59;;;10.10;50.96
26697;BME280;14312;52.614;13.496;2023-04-27T06:16:47;101333.78;;;10.14;50.79
26697;BME280;14312;52.614;13.496;2023-04-27T06:19:32;101335.00;;;10.18;50.65
26697;BME280;14312;52.614;13.496;2023-04-27T06:22:18;101343.59;;;10.20;50.55
26697;BME280;14312;52.614;13.496;2023-04-27T06:25:05;101348.47;;;10.23;50.67
26697;BME280;14312;52.614;13.496;2023-04-27T06:27:51;101343.53;;;10.27;50.56
26697;BME280;14312;52.614;13.496;2023-04-27T06:30:37;101347.00;;;10.27;50.32
26697;BME280;14312;52.614;13.496;2023-04-27T06:33:23;101345.38;;;10.26;50.15
26697;BME280;14312;52.614;13.496;2023-04-27T06:36:09;101348.25;;;10.25;50.32
26697;BME280;14312;52.614;13.496;2023-04-27T06:38:55;101348.47;;;10.23;50.47
26697;BME280;14312;52.614;13.496;2023-04-27T06:41:41;101344.78;;;10.24;50.36
26697;BME280;14312;52.614;13.496;2023-04-27T06:44:27;101355.00;;;10.27;50.51
26697;BME280;14312;52.614;13.496;2023-04-27T06:47:13;101355.13;;;10.32;50.62
26697;BME280;14312;52.614;13.496;2023-04-27T06:49:59;101355.31;;;10.37;50.27
26697;BME280;14312;52.614;13.496;2023-04-27T06:52:45;101358.94;;;10.43;50.46
26697;BME280;14312;52.614;13.496;2023-04-27T06:55:31;101353.53;;;10.49;50.59
26697;BME280;14312;52.614;13.496;2023-04-27T06:58:17;101354.50;;;10.55;50.41
26697;BME280;14312;52.614;13.496;2023-04-27T07:01:03;101352.78;;;10.60;50.24
26697;BME280;14312;52.614;13.496;2023-04-27T07:03:49;101359.06;;;10.66;50.03
26697;BME280;14312;52.614;13.496;2023-04-27T07:06:35;101357.41;;;10.72;49.70
26697;BME280;14312;52.614;13.496;2023-04-27T07:09:22;101356.50;;;10.78;49.90
26697;BME280;14312;52.614;13.496;2023-04-27T07:12:07;101354.56;;;10.85;49.72
26697;BME280;14312;52.614;13.496;2023-04-27T07:14:54;101351.00;;;10.91;49.67
26697;BME280;14312;52.614;13.496;2023-04-27T07:17:40;101352.56;;;10.98;49.51
26697;BME280;14312;52.614;13.496;2023-04-27T07:20:26;101351.22;;;11.08;49.56
26697;BME280;14312;52.614;13.496;2023-04-27T07:23:12;101362.13;;;11.18;49.51
26697;BME280;14312;52.614;13.496;2023-04-27T07:25:58;101352.56;;;11.28;49.70
26697;BME280;14312;52.614;13.496;2023-04-27T07:28:44;101349.94;;;11.40;49.73
26697;BME280;14312;52.614;13.496;2023-04-27T07:31:32;101354.25;;;11.53;49.25
26697;BME280;14312;52.614;13.496;2023-04-27T07:34:18;101358.22;;;11.62;48.63
26697;BME280;14312;52.614;13.496;2023-04-27T07:37:05;101362.06;;;11.66;48.41
26697;BME280;14312;52.614;13.496;2023-04-27T07:39:52;101360.09;;;11.73;48.57
26697;BME280;14312;52.614;13.496;2023-04-27T07:42:39;101354.34;;;11.76;48.32
26697;BME280;14312;52.614;13.496;2023-04-27T07:45:26;101364.91;;;11.83;48.95
26697;BME280;14312;52.614;13.496;2023-04-27T07:48:17;101370.16;;;11.89;48.31
26697;BME280;14312;52.614;13.496;2023-04-27T07:51:03;101375.16;;;11.97;48.30
26697;BME280;14312;52.614;13.496;2023-04-27T07:53:49;101380.16;;;12.05;48.53
26697;BME280;14312;52.614;13.496;2023-04-27T07:56:34;101377.16;;;12.13;48.06
26697;BME280;14312;52.614;13.496;2023-04-27T07:59:20;101367.63;;;12.18;47.64
26697;BME280;14312;52.614;13.496;2023-04-27T08:02:06;101376.22;;;12.20;47.67
26697;BME280;14312;52.614;13.496;2023-04-27T08:04:52;101375.28;;;12.26;47.60
26697;BME280;14312;52.614;13.496;2023-04-27T08:07:39;101371.09;;;12.30;47.31
26697;BME280;14312;52.614;13.496;2023-04-27T08:10:25;101374.34;;;12.32;47.37
26697;BME280;14312;52.614;13.496;2023-04-27T08:13:11;101369.00;;;12.32;47.12
26697;BME280;14312;52.614;13.496;2023-04-27T08:15:57;101368.56;;;12.35;47.25
26697;BME280;14312;52.614;13.496;2023-04-27T08:18:43;101370.88;;;12.43;47.44
26697;BME280;14312;52.614;13.496;2023-04-27T08:21:29;101373.16;;;12.51;47.54
26697;BME280;14312;52.614;13.496;2023-04-27T08:24:15;101389.00;;;12.64;47.45
26697;BME280;14312;52.614;13.496;2023-04-27T08:27:01;101378.47;;;12.74;46.82
26697;BME280;14312;52.614;13.496;2023-04-27T08:29:48;101381.03;;;12.81;46.63
26697;BME280;14312;52.614;13.496;2023-04-27T08:32:34;101390.44;;;12.83;46.92
26697;BME280;14312;52.614;13.496;2023-04-27T08:35:20;101385.09;;;12.83;46.42
26697;BME280;14312;52.614;13.496;2023-04-27T08:38:06;101385.78;;;12.79;45.99
26697;BME280;14312;52.614;13.496;2023-04-27T08:40:52;101383.84;;;12.74;45.74
26697;BME280;14312;52.614;13.496;2023-04-27T08:43:38;101390.13;;;12.68;46.08
26697;BME280;14312;52.614;13.496;2023-04-27T08:46:24;101388.41;;;12.62;45.98
26697;BME280;14312;52.614;13.496;2023-04-27T08:49:13;101387.13;;;12.53;45.90
26697;BME280;14312;52.614;13.496;2023-04-27T08:52:00;101385.97;;;12.49;45.90
26697;BME280;14312;52.614;13.496;2023-04-27T08:54:46;101390.63;;;12.42;46.05
26697;BME280;14312;52.614;13.496;2023-04-27T08:57:32;101384.59;;;12.35;46.04
26697;BME280;14312;52.614;13.496;2023-04-27T09:00:18;101376.91;;;12.27;45.90
26697;BME280;14312;52.614;13.496;2023-04-27T09:03:04;101379.47;;;12.22;45.92
26697;BME280;14312;52.614;13.496;2023-04-27T09:05:51;101381.56;;;12.20;46.01
26697;BME280;14312;52.614;13.496;2023-04-27T09:08:47;101385.28;;;12.19;45.45
26697;BME280;14312;52.614;13.496;2023-04-27T09:11:35;101375.19;;;12.21;46.91
26697;BME280;14312;52.614;13.496;2023-04-27T09:14:23;101377.13;;;12.37;47.32
26697;BME280;14312;52.614;13.496;2023-04-27T09:17:09;101375.03;;;12.62;46.75
26697;BME280;14312;52.614;13.496;2023-04-27T09:20:13;101375.91;;;12.79;45.07
26697;BME280;14312;52.614;13.496;2023-04-27T09:22:59;101389.41;;;12.84;44.92
26697;BME280;14312;52.614;13.496;2023-04-27T09:25:45;101378.72;;;12.84;44.83
26697;BME280;14312;52.614;13.496;2023-04-27T09:28:31;101385.34;;;12.82;44.63
26697;BME280;14312;52.614;13.496;2023-04-27T09:31:19;101379.66;;;12.78;44.81
26697;BME280;14312;52.614;13.496;2023-04-27T09:34:05;101379.31;;;12.75;45.02
26697;BME280;14312;52.614;13.496;2023-04-27T09:36:51;101380.56;;;12.72;44.84
26697;BME280;14312;52.614;13.496;2023-04-27T09:39:38;101368.84;;;12.73;45.12
26697;BME280;14312;52.614;13.496;2023-04-27T09:42:24;101370.09;;;12.82;46.00
26697;BME280;14312;52.614;13.496;2023-04-27T09:45:10;101368.88;;;13.02;45.89
26697;BME280;14312;52.614;13.496;2023-04-27T09:47:57;101371.28;;;13.26;45.42
26697;BME280;14312;52.614;13.496;2023-04-27T09:50:44;101359.66;;;13.49;44.55
26697;BME280;14312;52.614;13.496;2023-04-27T09:53:43;101359.81;;;13.59;43.29
26697;BME280;14312;52.614;13.496;2023-04-27T09:56:58;101371.69;;;13.63;43.54
26697;BME280;14312;52.614;13.496;2023-04-27T09:59:59;101366.31;;;13.63;43.44
26697;BME280;14312;52.614;13.496;2023-04-27T10:03:19;101353.47;;;13.65;43.17
26697;BME280;14312;52.614;13.496;2023-04-27T10:09:06;101357.47;;;13.80;44.02
26697;BME280;14312;52.614;13.496;2023-04-27T10:11:54;101345.22;;;13.84;43.92
26697;BME280;14312;52.614;13.496;2023-04-27T10:14:56;101349.25;;;13.86;43.34
26697;BME280;14312;52.614;13.496;2023-04-27T10:17:50;101346.84;;;13.85;43.14
26697;BME280;14312;52.614;13.496;2023-04-27T10:20:38;101347.09;;;13.83;43.31
26697;BME280;14312;52.614;13.496;2023-04-27T10:23:25;101341.97;;;13.82;43.00
26697;BME280;14312;52.614;13.496;2023-04-27T10:26:12;101338.72;;;13.80;42.94
26697;BME280;14312;52.614;13.496;2023-04-27T10:29:04;101335.47;;;13.78;42.68
26697;BME280;14312;52.614;13.496;2023-04-27T10:31:52;101338.72;;;13.80;43.43
26697;BME280;14312;52.614;13.496;2023-04-27T10:34:39;101342.03;;;13.87;42.82
26697;BME280;14312;52.614;13.496;2023-04-27T10:37:40;101333.19;;;14.03;42.23
26697;BME280;14312;52.614;13.496;2023-04-27T10:40:32;101329.09;;;14.17;42.67
26697;BME280;14312;52.614;13.496;2023-04-27T10:43:23;101343.97;;;14.41;42.16
26697;BME280;14312;52.614;13.496;2023-04-27T10:46:11;101337.84;;;14.68;41.96
26697;BME280;14312;52.614;13.496;2023-04-27T10:48:58;101334.78;;;14.81;41.05
26697;BME280;14312;52.614;13.496;2023-04-27T10:51:44;101335.13;;;14.84;40.89
26697;BME280;14312;52.614;13.496;2023-04-27T10:54:31;101350.91;;;14.81;39.76
26697;BME280;14312;52.614;13.496;2023-04-27T10:57:17;101332.53;;;14.73;39.35
26697;BME280;14312;52.614;13.496;2023-04-27T11:00:03;101342.34;;;14.62;39.29
26697;BME280;14312;52.614;13.496;2023-04-27T11:02:52;101347.81;;;14.50;39.46
26697;BME280;14312;52.614;13.496;2023-04-27T11:05:38;101341.53;;;14.40;39.81
26697;BME280;14312;52.614;13.496;2023-04-27T11:08:24;101342.72;;;14.32;40.00
26697;BME280;14312;52.614;13.496;2023-04-27T11:11:13;101342.38;;;14.29;39.96
26697;BME280;14312;52.614;13.496;2023-04-27T11:14:00;101340.47;;;14.24;40.29
26697;BME280;14312;52.614;13.496;2023-04-27T11:16:48;101337.47;;;14.21;40.14
26697;BME280;14312;52.614;13.496;2023-04-27T11:19:46;101343.91;;;14.20;40.14
26697;BME280;14312;52.614;13.496;2023-04-27T11:22:43;101343.63;;;14.21;40.18
26697;BME280;14312;52.614;13.496;2023-04-27T11:25:30;101346.31;;;14.21;40.82
26697;BME280;14312;52.614;13.496;2023-04-27T11:28:17;101339.97;;;14.27;40.88
26697;BME280;14312;52.614;13.496;2023-04-27T11:31:05;101346.53;;;14.36;40.89
26697;BME280;14312;52.614;13.496;2023-04-27T11:33:52;101348.25;;;14.42;40.79
26697;BME280;14312;52.614;13.496;2023-04-27T11:36:38;101349.19;;;14.53;40.75
26697;BME280;14312;52.614;13.496;2023-04-27T11:39:32;101353.38;;;14.66;40.33
26697;BME280;14312;52.614;13.496;2023-04-27T11:42:26;101356.44;;;14.74;39.77
26697;BME280;14312;52.614;13.496;2023-04-27T11:45:16;101367.47;;;14.78;40.33
26697;BME280;14312;52.614;13.496;2023-04-27T11:48:02;101362.94;;;14.78;40.09
26697;BME280;14312;52.614;13.496;2023-04-27T11:50:49;101361.34;;;14.77;40.03
26697;BME280;14312;52.614;13.496;2023-04-27T11:53:38;101364.25;;;14.76;39.80
26697;BME280;14312;52.614;13.496;2023-04-27T11:56:33;101370.63;;;14.70;38.65
26697;BME280;14312;52.614;13.496;2023-04-27T11:59:20;101369.47;;;14.66;40.04
26697;BME280;14312;52.614;13.496;2023-04-27T12:02:07;101363.00;;;14.62;40.06
26697;BME280;14312;52.614;13.496;2023-04-27T12:04:54;101372.09;;;14.61;40.31
26697;BME280;14312;52.614;13.496;2023-04-27T12:07:40;101373.72;;;14.62;40.30
26697;BME280;14312;52.614;13.496;2023-04-27T12:10:27;101380.72;;;14.63;40.18
26697;BME280;14312;52.614;13.496;2023-04-27T12:13:13;101380.72;;;14.63;40.03
26697;BME280;14312;52.614;13.496;2023-04-27T12:15:59;101374.78;;;14.61;40.20
26697;BME280;14312;52.614;13.496;2023-04-27T12:18:45;101372.09;;;14.61;40.20
26697;BME280;14312;52.614;13.496;2023-04-27T12:21:31;101378.53;;;14.60;40.08
26697;BME280;14312;52.614;13.496;2023-04-27T12:24:19;101384.94;;;14.59;39.79
26697;BME280;14312;52.614;13.496;2023-04-27T12:27:05;101381.22;;;14.60;39.68
26697;BME280;14312;52.614;13.496;2023-04-27T12:29:52;101375.28;;;14.58;39.85
26697;BME280;14312;52.614;13.496;2023-04-27T12:32:44;101382.50;;;14.57;39.84
26697;BME280;14312;52.614;13.496;2023-04-27T12:35:29;101390.31;;;14.59;39.76
26697;BME280;14312;52.614;13.496;2023-04-27T12:38:16;101375.03;;;14.59;39.79
26697;BME280;14312;52.614;13.496;2023-04-27T12:41:02;101378.59;;;14.65;40.05
26697;BME280;14312;52.614;13.496;2023-04-27T12:43:48;101369.28;;;14.72;40.16
26697;BME280;14312;52.614;13.496;2023-04-27T12:46:34;101383.91;;;14.81;40.21
26697;BME280;14312;52.614;13.496;2023-04-27T12:49:20;101370.63;;;14.92;40.18
26697;BME280;14312;52.614;13.496;2023-04-27T12:52:06;101372.59;;;15.01;39.82
26697;BME280;14312;52.614;13.496;2023-04-27T12:54:52;101380.69;;;15.06;39.42
26697;BME280;14312;52.614;13.496;2023-04-27T12:57:42;101377.53;;;15.09;39.51
26697;BME280;14312;52.614;13.496;2023-04-27T13:00:28;101381.03;;;15.10;39.42
26697;BME280;14312;52.614;13.496;2023-04-27T13:03:14;101379.97;;;15.11;39.26
26697;BME280;14312;52.614;13.496;2023-04-27T13:06:00;101380.78;;;15.11;39.30
26697;BME280;14312;52.614;13.496;2023-04-27T13:08:46;101374.34;;;15.12;39.46
26697;BME280;14312;52.614;13.496;2023-04-27T13:11:32;101370.34;;;15.15;39.35
26697;BME280;14312;52.614;13.496;2023-04-27T13:14:18;101375.78;;;15.20;39.55
26697;BME280;14312;52.614;13.496;2023-04-27T13:17:05;101366.44;;;15.27;39.67
26697;BME280;14312;52.614;13.496;2023-04-27T13:19:51;101377.28;;;15.38;39.59
26697;BME280;14312;52.614;13.496;2023-04-27T13:22:37;101368.25;;;15.49;39.60
26697;BME280;14312;52.614;13.496;2023-04-27T13:25:25;101374.59;;;15.59;39.24
26697;BME280;14312;52.614;13.496;2023-04-27T13:28:11;101363.13;;;15.69;38.98
26697;BME280;14312;52.614;13.496;2023-04-27T13:30:57;101356.72;;;15.75;39.07
26697;BME280;14312;52.614;13.496;2023-04-27T13:33:43;101362.13;;;15.80;38.46
26697;BME280;14312;52.614;13.496;2023-04-27T13:36:29;101362.69;;;15.82;38.10
26697;BME280;14312;52.614;13.496;2023-04-27T13:39:15;101360.56;;;15.84;37.63
26697;BME280;14312;52.614;13.496;2023-04-27T13:42:02;101361.88;;;15.82;37.56
26697;BME280;14312;52.614;13.496;2023-04-27T13:44:48;101362.69;;;15.82;38.11
26697;BME280;14312;52.614;13.496;2023-04-27T13:47:34;101370.28;;;15.90;38.05
26697;BME280;14312;52.614;13.496;2023-04-27T13:50:23;101364.47;;;16.03;37.84
26697;BME280;14312;52.614;13.496;2023-04-27T13:53:08;101364.59;;;16.24;37.63
26697;BME280;14312;52.614;13.496;2023-04-27T13:55:56;101367.94;;;16.41;37.02
26697;BME280;14312;52.614;13.496;2023-04-27T13:58:42;101362.03;;;16.44;36.37
26697;BME280;14312;52.614;13.496;2023-04-27T14:01:28;101370.63;;;16.41;36.11
26697;BME280;14312;52.614;13.496;2023-04-27T14:04:14;101366.00;;;16.31;36.32
26697;BME280;14312;52.614;13.496;2023-04-27T14:07:00;101368.38;;;16.28;36.29
26697;BME280;14312;52.614;13.496;2023-04-27T14:09:46;101369.47;;;16.27;36.19
26697;BME280;14312;52.614;13.496;2023-04-27T14:12:32;101376.44;;;16.28;36.04
26697;BME280;14312;52.614;13.496;2023-04-27T14:15:19;101377.56;;;16.32;35.93
26697;BME280;14312;52.614;13.496;2023-04-27T14:18:05;101372.47;;;16.35;35.80
26697;BME280;14312;52.614;13.496;2023-04-27T14:20:52;101371.13;;;16.33;35.25
26697;BME280;14312;52.614;13.496;2023-04-27T14:23:40;101366.81;;;16.32;35.83
26697;BME280;14312;52.614;13.496;2023-04-27T14:26:26;101366.84;;;16.42;36.10
26697;BME280;14312;52.614;13.496;2023-04-27T14:29:12;101365.91;;;16.63;36.69
26697;BME280;14312;52.614;13.496;2023-04-27T14:31:58;101363.91;;;16.91;36.51